Station: Kuitpo

  Atmospheric Gas Attenuation - ITU Rec 676-11   --------------- db/100km ---------------
Date Time Temp RH % AH g/m3 Dew Point Wind Direction Speed kph Gust kph Barometer mB Rainfall Since 9am 24GHz 47GHz 76GHz 122GHz 134GHz 241GHz
03 07:20 12.6 81 8.96 9.4 7 9 1019.1 0 20.4 27.1 42.2 110.6 105.3 362.4
03 07:10 12.5 81 8.91 9.3 11 13 1019.1 0 20.3 27.0 42.0 110.2 104.8 360.5
03 07:00 12.5 86 9.46 10.2 11 15 1018.8 0 21.5 27.9 44.3 116.4 112.3 387.0
03 06:50 11.2 89 9.02 9.5 11 13 1018.8 0 20.6 27.6 43.2 113.3 108.1 371.9
03 06:40 10.9 91 9.05 9.5 11 11 1018.7 0 20.7 27.7 43.4 114.1 108.9 374.7
03 06:30 10.7 92 9.04 9.5 9 11 1018.6 0 20.7 27.8 43.5 114.2 109.0 375.2
03 06:20 10.4 93 8.97 9.3 9 11 1018.6 0 20.5 27.7 43.4 113.9 108.5 373.2
03 06:10 10.3 92 8.81 9.1 7 9 1018.6 0 20.2 27.5 42.7 112.2 106.4 365.8
03 06:00 10.5 91 8.83 9.1 7 9 1018.4 0 20.2 27.5 42.7 112.1 106.3 365.8
03 05:50 10.8 90 8.9 9.2 9 11 1018.4 0 20.4 27.5 42.8 112.5 106.9 367.8
03 05:40 10.8 89 8.8 9.1 13 15 1018.1 0 20.2 27.3 42.4 111.3 105.5 362.8
03 05:30 11 88 8.81 9.1 11 17 1018.1 0 20.2 27.3 42.3 111.1 105.3 362.4
03 05:20 11.3 86 8.77 9 9 13 1018 0 20.1 27.1 42.0 110.2 104.4 359.0
03 05:00 11.6 86 8.94 9.3 9 13 1018 0 20.4 27.3 42.6 111.7 106.3 365.8
03 04:50 11.6 86 8.94 9.3 11 13 1017.9 0 20.4 27.3 42.6 111.7 106.3 365.8
03 04:40 11.6 86 8.94 9.3 11 13 1017.8 0 20.4 27.3 42.5 111.7 106.3 365.8
03 04:30 11.5 86 8.88 9.2 9 13 1017.8 0 20.3 27.2 42.4 111.2 105.6 363.3
03 04:20 11.6 86 8.94 9.3 9 11 1017.8 0 20.4 27.3 42.5 111.7 106.3 365.8
03 04:10 11.6 85 8.84 9.2 11 13 1017.8 0 20.2 27.1 42.1 110.6 104.9 360.9
03 04:00 11.6 85 8.84 9.2 11 17 1017.8 0 20.2 27.1 42.1 110.6 104.9 360.9
03 03:50 11.6 85 8.84 9.2 15 15 1018 0 20.2 27.1 42.1 110.6 104.9 361.0
03 03:40 11.7 85 8.89 9.3 11 13 1018 0 20.3 27.2 42.3 111.0 105.5 363.0
03 03:30 11.8 85 8.95 9.4 11 17 1018 0 20.4 27.3 42.5 111.6 106.2 365.4
03 03:20 11.7 86 9 9.4 11 13 1018.1 0 20.5 27.4 42.8 112.3 107.0 368.3
03 03:10 11.6 86 8.94 9.3 9 13 1018.1 0 20.4 27.3 42.6 111.7 106.3 365.9
03 03:00 11.4 86 8.83 9.1 9 13 1018 0 20.2 27.2 42.2 110.8 105.1 361.5
03 02:50 11.3 87 8.88 9.2 9 11 1018 0 20.3 27.3 42.5 111.5 105.9 364.3
03 02:40 11.2 87 8.82 9.1 11 13 1018.1 0 20.2 27.2 42.3 111.0 105.2 361.9
03 02:30 11.2 87 8.82 9.1 9 13 1018.2 0 20.2 27.2 42.3 111.0 105.2 362.0
03 02:20 11.1 87 8.76 9 9 11 1018.3 0 20.1 27.2 42.1 110.4 104.5 359.5
03 02:10 11.1 87 8.76 9 9 11 1018.3 0 20.1 27.2 42.1 110.4 104.5 359.5
03 02:00 11 88 8.81 9.1 7 11 1018.2 0 20.2 27.3 42.3 111.1 105.4 362.4
03 01:50 10.8 88 8.7 8.9 7 11 1018.1 0 19.9 27.1 42.0 110.2 104.1 358.0
03 01:40 10.6 88 8.59 8.7 7 9 1018.3 0 19.7 27.0 41.6 109.2 102.9 353.6
03 01:30 10.6 88 8.59 8.7 9 13 1018.2 0 19.7 27.0 41.6 109.2 102.8 353.6
03 01:20 10.6 87 8.49 8.5 9 11 1018.3 0 19.5 26.9 41.2 108.1 101.5 348.8
03 01:10 10.7 87 8.55 8.6 11 11 1018.1 0 19.6 26.9 41.4 108.6 102.2 351.2
03 01:00 10.6 87 8.49 8.5 11 17 1018.1 0 19.5 26.8 41.2 108.1 101.5 348.7
03 00:50 10.5 87 8.44 8.4 15 20 1018.3 0 19.4 26.8 41.1 107.7 100.9 346.8
03 00:40 10.3 87 8.33 8.2 13 15 1018.3 0 19.2 26.7 40.7 106.7 99.7 342.4
03 00:30 10.3 87 8.33 8.2 13 19 1018.3 0 19.2 26.7 40.7 106.7 99.7 342.4
03 00:20 10.5 87 8.44 8.4 13 17 1018.3 0 19.4 26.8 41.1 107.7 100.9 346.8
03 00:10 10.5 86 8.34 8.3 17 20 1018.1 0 19.2 26.6 40.6 106.6 99.5 341.9
03 00:00 10.5 86 8.34 8.3 13 20 1018.1 0 19.2 26.6 40.6 106.6 99.5 341.9
02 23:50 10.4 86 8.29 8.2 15 17 1018.4 0 19.1 26.6 40.5 106.2 99.0 340.0
02 23:40 10.4 85 8.19 8 9 13 1018.6 0 18.9 26.4 40.1 105.1 97.6 335.3
02 23:30 10.5 85 8.25 8.1 11 17 1018.5 0 19.0 26.5 40.3 105.6 98.3 337.7
02 23:20 10.6 84 8.2 8 9 11 1018.5 0 18.9 26.4 40.0 104.9 97.5 334.9
02 23:10 10.6 84 8.2 8 13 17 1018.5 0 18.9 26.4 40.0 104.9 97.5 334.9
02 23:00 10.4 85 8.19 8 11 19 1018.2 0 18.9 26.4 40.1 105.0 97.6 335.2
02 22:50 10.3 84 8.05 7.7 11 15 1018.3 0 18.6 26.2 39.5 103.6 95.8 328.9
02 22:40 10.5 83 8.05 7.7 13 19 1018.4 0 18.6 26.2 39.4 103.4 95.6 328.1
02 22:30 10.4 83 8 7.6 13 20 1018.4 0 18.5 26.1 39.3 103.0 95.0 326.2
02 22:20 10.5 82 7.95 7.6 13 17 1018.4 0 18.3 26.0 39.0 102.3 94.2 323.4
02 22:10 10.4 83 8 7.6 9 11 1018.4 0 18.5 26.1 39.3 103.0 95.0 326.2
02 22:00 10.5 82 7.95 7.6 11 22 1018.2 0 18.3 26.0 39.0 102.3 94.2 323.3
02 21:50 10.5 82 7.95 7.6 13 20 1018.1 0 18.3 26.0 39.0 102.2 94.2 323.3
02 21:40 10.6 82 8.01 7.7 13 17 1017.9 0 18.5 26.0 39.2 102.8 94.9 325.7
02 21:30 10.7 81 7.96 7.6 13 20 1017.9 0 18.4 25.9 38.9 102.1 94.1 322.9
02 21:20 10.7 81 7.96 7.6 9 13 1017.9 0 18.4 25.9 38.9 102.1 94.1 322.9
02 21:10 10.8 80 7.91 7.5 11 13 1017.7 0 18.2 25.8 38.7 101.4 93.3 320.1
02 21:00 10.8 80 7.91 7.5 13 24 1017.7 0 18.2 25.8 38.7 101.4 93.3 320.1
02 20:50 11 78 7.81 7.3 13 24 1017.7 0 18.0 25.6 38.2 100.0 91.7 314.6
02 20:40 11.1 78 7.86 7.4 17 20 1017.7 0 18.1 25.6 38.3 100.5 92.2 316.5
02 20:30 11.2 77 7.81 7.3 13 26 1017.6 0 18.0 25.5 38.1 99.8 91.4 313.7
02 20:20 11.4 76 7.8 7.3 11 15 1017.5 0 18.0 25.4 37.9 99.4 91.1 312.5
02 20:10 11.7 75 7.85 7.4 19 22 1017.4 0 18.1 25.4 38.0 99.5 91.4 313.6
02 20:00 12.1 74 7.94 7.6 13 22 1017.4 0 18.3 25.5 38.2 100.0 92.1 316.1
02 19:50 12.5 72 7.92 7.6 11 13 1017.3 0 18.2 25.3 37.9 99.3 91.3 313.6
02 19:40 13.1 71 8.1 8 11 20 1017.2 0 18.6 25.4 38.3 100.4 93.0 319.4
02 19:30 13.3 72 8.32 8.4 13 20 1016.9 0 19.0 25.7 39.1 102.5 95.6 328.7
02 19:20 13.3 70 8.09 8 13 15 1016.8 0 18.5 25.3 38.2 100.0 92.6 318.1
02 19:10 13.5 68 7.95 7.7 15 20 1016.6 0 18.2 25.1 37.5 98.3 90.5 310.8
02 19:00 13.8 67 7.98 7.8 17 32 1016.5 0 18.3 25.0 37.5 98.2 90.6 311.0
02 18:50 14.3 66 8.11 8 13 19 1016.5 0 18.5 25.1 37.8 98.9 91.6 314.9
02 18:40 14.6 64 8.01 7.9 17 22 1016.3 0 18.3 24.8 37.2 97.5 90.0 309.1
02 18:30 14.3 66 8.11 8 17 30 1016.1 0 18.5 25.1 37.7 98.9 91.6 314.8
02 18:20 14.9 65 8.28 8.4 17 19 1016 0 18.9 25.2 38.1 99.9 93.1 320.0
02 18:10 15.4 64 8.41 8.6 13 17 1015.9 0 19.1 25.2 38.4 100.6 94.2 323.8
02 18:00 15.5 65 8.59 9 17 28 1015.7 0 19.5 25.5 39.0 102.4 96.3 331.5
02 17:50 16.4 62 8.65 9.1 11 17 1015.6 0 19.6 25.3 38.8 101.8 96.0 330.4
02 17:40 16.1 60 8.22 8.3 19 28 1015.4 0 18.7 24.7 37.3 97.8 90.9 312.4
02 17:30 16.5 60 8.42 8.7 20 35 1015.3 0 19.1 24.9 37.9 99.3 92.9 319.7
02 17:20 16.6 59 8.33 8.6 19 26 1015.3 0 18.9 24.8 37.5 98.3 91.7 315.3
02 17:10 17.2 60 8.79 9.4 19 26 1015.2 0 19.8 25.3 39.0 102.2 96.8 333.2
02 17:00 17.1 59 8.59 9 20 32 1015.2 0 19.4 25.0 38.2 100.3 94.4 324.7
02 16:50 17.7 59 8.9 9.6 19 24 1015.1 0 20.0 25.3 39.1 102.7 97.5 335.9
02 16:40 17.7 58 8.75 9.3 20 30 1015.1 0 19.7 25.1 38.6 101.2 95.6 329.3
02 16:30 18.3 60 9.38 10.4 19 30 1015 0 21.0 25.9 40.7 106.8 102.9 354.7
02 16:20 18.7 57 9.13 10 13 22 1014.9 0 20.5 25.4 39.5 103.7 99.2 341.8
02 16:10 19.8 58 9.91 11.3 13 17 1014.8 0 22.1 26.3 42.0 110.3 107.6 371.4
02 16:00 19.3 55 9.12 10 17 30 1014.8 0 20.4 25.2 39.2 102.8 98.3 338.8
02 15:50 21.1 55 10.13 11.7 13 17 1014.7 0 22.5 26.2 42.1 110.7 108.6 375.1
02 15:40 20.7 55 9.9 11.3 15 20 1014.8 0 22.0 26.0 41.4 108.9 106.2 366.8
02 15:30 21.4 56 10.5 12.3 17 26 1014.7 0 23.2 26.7 43.4 114.1 112.9 390.0
02 15:20 21.2 55 10.19 11.8 15 19 1014.6 0 22.6 26.3 42.3 111.2 109.2 377.2
02 15:10 21.1 57 10.5 12.3 13 17 1014.5 0 23.2 26.8 43.5 114.5 113.3 391.4
02 15:00 21.4 59 11.06 13.1 17 28 1014.3 0 24.4 27.6 45.6 119.9 120.0 415.0
02 14:50 21.7 56 10.68 12.5 19 22 1014.3 0 23.6 26.9 43.9 115.5 114.7 396.4
02 14:40 20.9 56 10.2 11.8 13 15 1014.2 0 22.6 26.4 42.5 111.7 109.7 379.0

Last Refresh: 03-Dec-2021 07:33:35

Bureau of Meteorology